createdAt,value
2022-08-17T00:03:06.052Z,56.52
2022-08-17T00:08:08.227Z,56.64
2022-08-17T00:13:18.447Z,56.60
2022-08-17T00:19:01.092Z,56.38
2022-08-17T00:23:46.219Z,56.35
2022-08-17T00:28:51.225Z,56.12
2022-08-17T00:33:54.486Z,56.23
2022-08-17T00:38:55.978Z,56.13
2022-08-17T00:44:01.127Z,56.26
2022-08-17T00:49:03.773Z,56.39
2022-08-17T00:54:20.448Z,56.13
2022-08-17T00:59:24.942Z,55.71
2022-08-17T01:04:29.347Z,55.59
2022-08-17T01:09:33.885Z,55.49
2022-08-17T01:14:35.517Z,56.17
2022-08-17T01:19:43.217Z,57.37
2022-08-17T01:24:49.774Z,58.28
2022-08-17T01:29:57.881Z,58.70
2022-08-17T01:35:02.957Z,59.39
2022-08-17T01:40:35.277Z,62.75
2022-08-17T01:45:44.626Z,61.21
2022-08-17T01:50:48.558Z,62.22
2022-08-17T01:56:07.155Z,64.53
2022-08-17T02:01:10.262Z,63.54
2022-08-17T02:06:12.182Z,64.23
2022-08-17T02:11:29.688Z,63.44
2022-08-17T02:16:37.406Z,63.21
2022-08-17T02:21:41.524Z,64.12
2022-08-17T02:26:43.200Z,64.52
2022-08-17T02:31:45.838Z,64.27
2022-08-17T02:36:47.680Z,64.60
2022-08-17T02:41:49.287Z,63.79
2022-08-17T02:46:51.813Z,63.77
2022-08-17T02:51:53.316Z,64.64
2022-08-17T02:56:55.062Z,65.16
2022-08-17T03:01:56.893Z,65.83
2022-08-17T03:06:58.670Z,66.49
2022-08-17T03:12:09.097Z,68.63
2022-08-17T03:17:17.169Z,70.59
2022-08-17T03:22:35.548Z,72.26
2022-08-17T03:27:39.517Z,73.59
2022-08-17T03:32:49.216Z,74.18
2022-08-17T03:37:59.974Z,74.14
2022-08-17T03:43:08.014Z,74.61
2022-08-17T03:48:29.599Z,75.05
2022-08-17T03:53:49.696Z,74.97
2022-08-17T03:58:51.182Z,74.46
2022-08-17T04:03:52.741Z,74.03
2022-08-17T04:08:54.275Z,73.60
2022-08-17T04:13:56.774Z,72.84
2022-08-17T04:18:58.313Z,72.30
2022-08-17T04:24:00.210Z,71.92
2022-08-17T04:29:03.769Z,72.37
2022-08-17T04:34:05.459Z,72.28
2022-08-17T04:39:07.007Z,70.39
2022-08-17T04:44:08.603Z,69.42
2022-08-17T04:49:11.365Z,67.74
2022-08-17T04:54:18.487Z,66.09
2022-08-17T04:59:22.205Z,65.66
2022-08-17T05:04:34.153Z,64.62
2022-08-17T05:09:36.732Z,64.76
2022-08-17T05:14:39.535Z,64.27
2022-08-17T05:19:41.678Z,63.84
2022-08-17T05:24:53.402Z,63.72
2022-08-17T05:29:55.815Z,62.91
2022-08-17T05:35:00.040Z,62.23
2022-08-17T05:40:01.751Z,61.04
2022-08-17T05:45:07.231Z,60.93
2022-08-17T05:50:13.409Z,59.70
2022-08-17T05:55:34.998Z,55.46
2022-08-17T06:01:10.263Z,52.97
2022-08-17T06:06:31.872Z,51.76
2022-08-17T06:11:46.892Z,53.13
2022-08-17T06:17:01.085Z,54.62
2022-08-17T06:22:05.793Z,56.49
2022-08-17T06:27:19.658Z,58.62
2022-08-17T06:32:21.285Z,59.88
2022-08-17T06:37:44.046Z,60.25
2022-08-17T06:43:22.574Z,61.06
2022-08-17T06:48:39.399Z,63.47
2022-08-17T06:53:55.525Z,65.34
2022-08-17T06:58:58.973Z,64.45
2022-08-17T07:04:14.222Z,65.79
2022-08-17T07:09:35.767Z,65.49
2022-08-17T07:14:52.815Z,65.50
2022-08-17T07:20:05.347Z,64.45
2022-08-17T07:25:13.320Z,64.41
2022-08-17T07:30:21.966Z,62.13
2022-08-17T07:35:31.241Z,60.80
2022-08-17T07:41:02.070Z,60.66
2022-08-17T07:46:31.191Z,61.25
2022-08-17T07:51:37.411Z,61.96
2022-08-17T07:56:45.458Z,62.24
2022-08-17T08:02:26.435Z,62.78
2022-08-17T08:07:38.711Z,66.14
2022-08-17T08:12:46.727Z,70.21
2022-08-17T08:17:53.375Z,71.80
2022-08-17T08:23:23.313Z,72.95
2022-08-17T08:28:33.989Z,71.83
2022-08-17T08:33:56.345Z,72.15
2022-08-17T08:39:06.364Z,70.51
2022-08-17T08:44:13.920Z,69.07
2022-08-17T08:50:03.238Z,65.07
2022-08-17T08:55:24.652Z,60.80
2022-08-17T09:00:27.748Z,60.06
2022-08-17T09:05:52.741Z,60.04
2022-08-17T09:12:01.405Z,61.05
2022-08-17T09:17:09.384Z,61.72
2022-08-17T09:22:33.467Z,64.60
2022-08-17T09:27:53.492Z,69.63
2022-08-17T09:33:02.226Z,71.50
2022-08-17T09:38:32.711Z,73.10
2022-08-17T09:43:56.704Z,77.71
2022-08-17T09:49:09.763Z,77.14
2022-08-17T09:54:39.943Z,78.80
2022-08-17T09:59:44.785Z,80.23
2022-08-17T10:04:55.063Z,81.34
2022-08-17T10:09:56.544Z,79.38
2022-08-17T10:15:49.535Z,75.42
2022-08-17T10:21:26.354Z,70.10
2022-08-17T10:26:46.282Z,67.48
2022-08-17T10:32:05.955Z,64.48
2022-08-17T10:37:13.105Z,64.01
2022-08-17T10:42:30.535Z,63.77
2022-08-17T10:48:22.283Z,63.38
2022-08-17T10:53:32.862Z,62.14
2022-08-17T10:58:45.319Z,60.84
2022-08-17T11:03:56.698Z,60.01
2022-08-17T11:09:10.982Z,59.52
2022-08-17T11:14:48.478Z,59.47
2022-08-17T11:19:58.701Z,59.83
2022-08-17T11:25:18.983Z,58.13
2022-08-17T11:30:41.060Z,55.88
2022-08-17T11:35:51.484Z,55.87
2022-08-17T11:41:08.257Z,55.79
2022-08-17T11:47:06.169Z,53.70
2022-08-17T11:52:32.252Z,53.51
2022-08-17T11:57:34.086Z,54.01
2022-08-17T12:02:47.393Z,54.79
2022-08-17T12:07:57.502Z,54.88
2022-08-17T12:13:04.468Z,54.75
2022-08-17T12:18:05.917Z,54.14
2022-08-17T12:23:33.798Z,52.69
2022-08-17T12:28:38.949Z,50.07
2022-08-17T12:33:44.514Z,49.02
2022-08-17T12:39:14.071Z,48.29
2022-08-17T12:44:23.183Z,47.00
2022-08-17T12:49:29.951Z,46.30
2022-08-17T12:54:57.205Z,46.80
2022-08-17T13:00:02.878Z,47.61
2022-08-17T13:05:05.606Z,47.26
2022-08-17T13:10:07.146Z,47.73
2022-08-17T13:15:19.642Z,45.14
2022-08-17T13:20:21.165Z,46.01
2022-08-17T13:25:23.232Z,46.04
2022-08-17T13:30:29.104Z,45.90
2022-08-17T13:35:39.398Z,46.11
2022-08-17T13:40:53.052Z,47.12
2022-08-17T13:46:09.250Z,45.11
2022-08-17T13:51:23.952Z,44.64
2022-08-17T13:56:38.250Z,44.51
2022-08-17T14:01:53.850Z,43.40
2022-08-17T14:07:24.003Z,43.86
2022-08-17T14:12:27.458Z,43.22
2022-08-17T14:17:35.002Z,42.37
2022-08-17T14:22:44.988Z,41.90
2022-08-17T14:27:53.557Z,41.58
2022-08-17T14:32:56.526Z,40.62
2022-08-17T14:37:59.230Z,41.81
2022-08-17T14:43:01.298Z,41.43
2022-08-17T14:48:07.576Z,41.17
2022-08-17T14:53:12.717Z,41.43
2022-08-17T14:58:14.206Z,40.97
2022-08-17T15:03:16.893Z,41.46
2022-08-17T15:08:19.551Z,41.60
2022-08-17T15:13:26.485Z,41.79
2022-08-17T15:18:29.464Z,41.26
2022-08-17T15:23:31.898Z,40.30
2022-08-17T15:28:33.928Z,41.55
2022-08-17T15:33:35.689Z,41.15
2022-08-17T15:38:41.137Z,41.63
2022-08-17T15:43:48.534Z,41.29
2022-08-17T15:48:54.830Z,41.48
2022-08-17T15:54:04.524Z,41.30
2022-08-17T15:59:20.937Z,41.52
2022-08-17T16:04:29.883Z,41.04
2022-08-17T16:09:32.613Z,41.51
2022-08-17T16:14:35.038Z,41.61
2022-08-17T16:19:38.845Z,41.88
2022-08-17T16:24:56.808Z,42.18
2022-08-17T16:29:58.831Z,42.46
2022-08-17T16:35:09.730Z,42.09
2022-08-17T16:40:11.961Z,42.77
2022-08-17T16:45:16.997Z,43.26
2022-08-17T16:50:21.751Z,42.88
2022-08-17T16:55:23.330Z,43.52
2022-08-17T17:00:24.765Z,43.95
2022-08-17T17:05:57.730Z,44.00
2022-08-17T17:11:08.998Z,44.68
2022-08-17T17:16:26.364Z,44.85
2022-08-17T17:21:37.688Z,45.34
2022-08-17T17:26:45.533Z,45.48
2022-08-17T17:32:13.657Z,45.80
2022-08-17T17:37:26.309Z,45.88
2022-08-17T17:42:31.515Z,46.18
2022-08-17T17:47:33.270Z,46.04
2022-08-17T17:52:56.352Z,46.57
2022-08-17T17:58:05.183Z,46.57
2022-08-17T18:03:25.279Z,46.45
2022-08-17T18:08:49.207Z,46.77
2022-08-17T18:14:02.415Z,46.86
2022-08-17T18:19:03.930Z,47.09
2022-08-17T18:24:08.854Z,47.64
2022-08-17T18:29:16.015Z,49.00
2022-08-17T18:34:46.047Z,49.20
2022-08-17T18:39:46.521Z,50.54
2022-08-17T18:44:51.742Z,50.84
2022-08-17T18:50:33.586Z,51.54
2022-08-17T18:55:35.306Z,51.74
2022-08-17T19:00:41.491Z,51.93
2022-08-17T19:05:45.998Z,52.54
2022-08-17T19:10:51.255Z,52.86
2022-08-17T19:16:20.067Z,53.38
2022-08-17T19:21:27.438Z,53.61
2022-08-17T19:26:54.392Z,54.88
2022-08-17T19:31:58.745Z,54.99
2022-08-17T19:37:07.487Z,55.62
2022-08-17T19:42:32.462Z,56.14
2022-08-17T19:47:57.857Z,56.22
2022-08-17T19:53:33.215Z,56.68
2022-08-17T19:59:01.228Z,57.14
2022-08-17T20:04:14.430Z,57.49
2022-08-17T20:09:29.604Z,57.59
2022-08-17T20:14:53.258Z,58.27
2022-08-17T20:20:07.549Z,58.39
2022-08-17T20:25:38.018Z,58.56
2022-08-17T20:30:42.080Z,58.74
2022-08-17T20:36:01.978Z,60.07
2022-08-17T20:41:03.900Z,59.26
2022-08-17T20:46:43.926Z,60.04
2022-08-17T20:52:02.327Z,60.21
2022-08-17T20:57:06.796Z,60.13
2022-08-17T21:02:21.610Z,60.10
2022-08-17T21:07:43.580Z,60.19
2022-08-17T21:12:57.886Z,59.79
2022-08-17T21:18:25.951Z,59.50
2022-08-17T21:23:40.319Z,59.89
2022-08-17T21:29:30.306Z,60.33
2022-08-17T21:34:33.723Z,59.94
2022-08-17T21:39:40.500Z,60.06
2022-08-17T21:44:49.372Z,59.99
2022-08-17T21:49:56.520Z,59.93
2022-08-17T21:55:03.284Z,59.44
2022-08-17T22:00:15.607Z,58.46
2022-08-17T22:05:28.933Z,58.73
2022-08-17T22:10:46.287Z,58.81
2022-08-17T22:15:50.999Z,59.09
2022-08-17T22:20:56.039Z,59.90
2022-08-17T22:26:04.327Z,60.18
2022-08-17T22:31:07.349Z,60.96
2022-08-17T22:36:26.863Z,60.66
2022-08-17T22:41:52.129Z,61.23
2022-08-17T22:47:01.826Z,61.13
2022-08-17T22:52:16.733Z,61.97
2022-08-17T22:57:43.599Z,63.04
2022-08-17T23:03:09.396Z,65.09
2022-08-17T23:08:13.561Z,66.41
2022-08-17T23:13:15.075Z,67.75
2022-08-17T23:18:17.580Z,69.03
2022-08-17T23:23:23.399Z,69.98
2022-08-17T23:28:25.203Z,71.48
2022-08-17T23:33:30.584Z,73.48
2022-08-17T23:38:33.237Z,73.81
2022-08-17T23:43:36.343Z,74.47
2022-08-17T23:48:38.172Z,75.33
2022-08-17T23:53:46.144Z,75.98
2022-08-17T23:58:47.565Z,76.22
